sensor_id;sensor_type;location;lat;lon;timestamp;pressure;altitude;pressure_sealevel;temperature
66795;BMP280;53698;52.738;4.752;2022-08-25T00:00:42;102010.03;;;22.17
66795;BMP280;53698;52.738;4.752;2022-08-25T00:03:09;102008.53;;;22.16
66795;BMP280;53698;52.738;4.752;2022-08-25T00:05:35;102011.56;;;22.18
66795;BMP280;53698;52.738;4.752;2022-08-25T00:08:02;101997.94;;;22.20
66795;BMP280;53698;52.738;4.752;2022-08-25T00:10:28;102002.00;;;22.19
66795;BMP280;53698;52.738;4.752;2022-08-25T00:12:53;102004.47;;;22.17
66795;BMP280;53698;52.738;4.752;2022-08-25T00:15:19;101996.66;;;22.16
66795;BMP280;53698;52.738;4.752;2022-08-25T00:17:46;102003.94;;;22.13
66795;BMP280;53698;52.738;4.752;2022-08-25T00:20:11;102008.47;;;22.11
66795;BMP280;53698;52.738;4.752;2022-08-25T00:22:37;102003.91;;;22.08
66795;BMP280;53698;52.738;4.752;2022-08-25T00:25:02;101996.06;;;22.07
66795;BMP280;53698;52.738;4.752;2022-08-25T00:27:28;101997.34;;;22.06
66795;BMP280;53698;52.738;4.752;2022-08-25T00:29:53;101992.75;;;22.03
66795;BMP280;53698;52.738;4.752;2022-08-25T00:32:18;101996.25;;;21.98
66795;BMP280;53698;52.738;4.752;2022-08-25T00:34:44;101991.66;;;21.95
66795;BMP280;53698;52.738;4.752;2022-08-25T00:37:10;101985.59;;;21.91
66795;BMP280;53698;52.738;4.752;2022-08-25T00:39:37;101990.59;;;21.87
66795;BMP280;53698;52.738;4.752;2022-08-25T00:42:03;101981.22;;;21.85
66795;BMP280;53698;52.738;4.752;2022-08-25T00:44:31;101989.00;;;21.81
66795;BMP280;53698;52.738;4.752;2022-08-25T00:46:59;101975.31;;;21.77
66795;BMP280;53698;52.738;4.752;2022-08-25T00:52:08;101977.81;;;21.75
66795;BMP280;53698;52.738;4.752;2022-08-25T00:54:38;101980.59;;;21.75
66795;BMP280;53698;52.738;4.752;2022-08-25T00:57:06;101984.63;;;21.75
66795;BMP280;53698;52.738;4.752;2022-08-25T00:59:32;101982.84;;;21.72
66795;BMP280;53698;52.738;4.752;2022-08-25T01:01:58;101977.28;;;21.72
66795;BMP280;53698;52.738;4.752;2022-08-25T01:04:24;101977.03;;;21.70
66795;BMP280;53698;52.738;4.752;2022-08-25T01:06:49;101980.75;;;21.67
66795;BMP280;53698;52.738;4.752;2022-08-25T01:09:15;101977.44;;;21.63
66795;BMP280;53698;52.738;4.752;2022-08-25T01:11:42;101989.81;;;21.62
66795;BMP280;53698;52.738;4.752;2022-08-25T01:14:11;101975.66;;;21.60
66795;BMP280;53698;52.738;4.752;2022-08-25T01:16:38;101974.88;;;21.59
66795;BMP280;53698;52.738;4.752;2022-08-25T01:19:06;101962.50;;;21.55
66795;BMP280;53698;52.738;4.752;2022-08-25T01:21:37;101968.75;;;21.50
66795;BMP280;53698;52.738;4.752;2022-08-25T01:24:04;101964.38;;;21.44
66795;BMP280;53698;52.738;4.752;2022-08-25T01:26:32;101964.31;;;21.39
66795;BMP280;53698;52.738;4.752;2022-08-25T01:29:00;101970.09;;;21.35
66795;BMP280;53698;52.738;4.752;2022-08-25T01:31:56;101970.31;;;21.32
66795;BMP280;53698;52.738;4.752;2022-08-25T01:34:24;101963.44;;;21.27
66795;BMP280;53698;52.738;4.752;2022-08-25T01:36:50;101962.41;;;21.25
66795;BMP280;53698;52.738;4.752;2022-08-25T01:39:16;101959.34;;;21.23
66795;BMP280;53698;52.738;4.752;2022-08-25T01:44:13;101956.53;;;21.18
66795;BMP280;53698;52.738;4.752;2022-08-25T01:46:39;101958.53;;;21.17
66795;BMP280;53698;52.738;4.752;2022-08-25T01:49:04;101951.44;;;21.16
66795;BMP280;53698;52.738;4.752;2022-08-25T01:51:37;101949.44;;;21.17
66795;BMP280;53698;52.738;4.752;2022-08-25T01:54:03;101948.41;;;21.14
66795;BMP280;53698;52.738;4.752;2022-08-25T01:56:28;101947.09;;;21.10
66795;BMP280;53698;52.738;4.752;2022-08-25T01:58:55;101942.53;;;21.07
66795;BMP280;53698;52.738;4.752;2022-08-25T02:01:23;101942.97;;;21.06
66795;BMP280;53698;52.738;4.752;2022-08-25T02:03:50;101944.72;;;21.03
66795;BMP280;53698;52.738;4.752;2022-08-25T02:06:22;101943.69;;;21.01
66795;BMP280;53698;52.738;4.752;2022-08-25T02:08:50;101942.63;;;20.98
66795;BMP280;53698;52.738;4.752;2022-08-25T02:11:16;101945.63;;;20.95
66795;BMP280;53698;52.738;4.752;2022-08-25T02:13:42;101941.03;;;20.92
66795;BMP280;53698;52.738;4.752;2022-08-25T02:16:09;101940.50;;;20.88
66795;BMP280;53698;52.738;4.752;2022-08-25T02:18:38;101937.16;;;20.84
66795;BMP280;53698;52.738;4.752;2022-08-25T02:21:04;101930.06;;;20.83
66795;BMP280;53698;52.738;4.752;2022-08-25T02:23:29;101928.56;;;20.82
66795;BMP280;53698;52.738;4.752;2022-08-25T02:25:55;101927.31;;;20.83
66795;BMP280;53698;52.738;4.752;2022-08-25T02:28:21;101923.78;;;20.83
66795;BMP280;53698;52.738;4.752;2022-08-25T02:30:46;101935.91;;;20.85
66795;BMP280;53698;52.738;4.752;2022-08-25T02:33:12;101925.59;;;20.86
66795;BMP280;53698;52.738;4.752;2022-08-25T02:35:38;101918.03;;;20.86
66795;BMP280;53698;52.738;4.752;2022-08-25T02:38:04;101917.25;;;20.86
66795;BMP280;53698;52.738;4.752;2022-08-25T02:40:29;101922.50;;;20.84
66795;BMP280;53698;52.738;4.752;2022-08-25T02:42:55;101918.97;;;20.83
66795;BMP280;53698;52.738;4.752;2022-08-25T02:45:21;101925.50;;;20.80
66795;BMP280;53698;52.738;4.752;2022-08-25T02:47:47;101926.00;;;20.79
66795;BMP280;53698;52.738;4.752;2022-08-25T02:50:12;101918.44;;;20.79
66795;BMP280;53698;52.738;4.752;2022-08-25T02:52:38;101919.41;;;20.76
66795;BMP280;53698;52.738;4.752;2022-08-25T02:55:07;101915.13;;;20.75
66795;BMP280;53698;52.738;4.752;2022-08-25T02:57:32;101919.91;;;20.75
66795;BMP280;53698;52.738;4.752;2022-08-25T02:59:58;101914.81;;;20.73
66795;BMP280;53698;52.738;4.752;2022-08-25T03:02:25;101910.53;;;20.73
66795;BMP280;53698;52.738;4.752;2022-08-25T03:04:51;101905.75;;;20.73
66795;BMP280;53698;52.738;4.752;2022-08-25T03:07:17;101905.25;;;20.74
66795;BMP280;53698;52.738;4.752;2022-08-25T03:09:43;101895.41;;;20.73
66795;BMP280;53698;52.738;4.752;2022-08-25T03:12:09;101904.97;;;20.73
66795;BMP280;53698;52.738;4.752;2022-08-25T03:14:36;101901.19;;;20.70
66795;BMP280;53698;52.738;4.752;2022-08-25T03:17:01;101905.19;;;20.69
66795;BMP280;53698;52.738;4.752;2022-08-25T03:19:27;101907.97;;;20.69
66795;BMP280;53698;52.738;4.752;2022-08-25T03:21:52;101900.41;;;20.70
66795;BMP280;53698;52.738;4.752;2022-08-25T03:24:20;101887.25;;;20.65
66795;BMP280;53698;52.738;4.752;2022-08-25T03:26:46;101890.50;;;20.63
66795;BMP280;53698;52.738;4.752;2022-08-25T03:29:27;101883.94;;;20.61
66795;BMP280;53698;52.738;4.752;2022-08-25T03:31:54;101887.66;;;20.58
66795;BMP280;53698;52.738;4.752;2022-08-25T03:34:23;101884.59;;;20.56
66795;BMP280;53698;52.738;4.752;2022-08-25T03:36:50;101873.25;;;20.54
66795;BMP280;53698;52.738;4.752;2022-08-25T03:39:18;101872.19;;;20.52
66795;BMP280;53698;52.738;4.752;2022-08-25T03:41:44;101869.16;;;20.50
66795;BMP280;53698;52.738;4.752;2022-08-25T03:44:11;101876.72;;;20.49
66795;BMP280;53698;52.738;4.752;2022-08-25T03:46:40;101866.09;;;20.48
66795;BMP280;53698;52.738;4.752;2022-08-25T03:49:07;101866.84;;;20.48
66795;BMP280;53698;52.738;4.752;2022-08-25T03:51:42;101865.31;;;20.47
66795;BMP280;53698;52.738;4.752;2022-08-25T03:54:09;101865.53;;;20.44
66795;BMP280;53698;52.738;4.752;2022-08-25T03:56:35;101860.69;;;20.39
66795;BMP280;53698;52.738;4.752;2022-08-25T03:59:01;101854.88;;;20.37
66795;BMP280;53698;52.738;4.752;2022-08-25T04:01:26;101854.81;;;20.32
66795;BMP280;53698;52.738;4.752;2022-08-25T04:03:52;101858.53;;;20.29
66795;BMP280;53698;52.738;4.752;2022-08-25T04:06:18;101852.97;;;20.29
66795;BMP280;53698;52.738;4.752;2022-08-25T04:08:44;101853.94;;;20.26
66795;BMP280;53698;52.738;4.752;2022-08-25T04:11:13;101853.94;;;20.26
66795;BMP280;53698;52.738;4.752;2022-08-25T04:13:40;101844.88;;;20.25
66795;BMP280;53698;52.738;4.752;2022-08-25T04:16:14;101844.97;;;20.31
66795;BMP280;53698;52.738;4.752;2022-08-25T04:18:41;101841.50;;;20.36
66795;BMP280;53698;52.738;4.752;2022-08-25T04:21:08;101833.44;;;20.38
66795;BMP280;53698;52.738;4.752;2022-08-25T04:23:35;101834.97;;;20.39
66795;BMP280;53698;52.738;4.752;2022-08-25T04:26:06;101829.44;;;20.39
66795;BMP280;53698;52.738;4.752;2022-08-25T04:28:32;101825.44;;;20.39
66795;BMP280;53698;52.738;4.752;2022-08-25T04:30:57;101828.53;;;20.47
66795;BMP280;53698;52.738;4.752;2022-08-25T04:33:23;101824.59;;;20.53
66795;BMP280;53698;52.738;4.752;2022-08-25T04:35:49;101821.84;;;20.58
66795;BMP280;53698;52.738;4.752;2022-08-25T04:38:15;101821.66;;;20.62
66795;BMP280;53698;52.738;4.752;2022-08-25T04:40:40;101826.03;;;20.68
66795;BMP280;53698;52.738;4.752;2022-08-25T04:43:06;101825.81;;;20.72
66795;BMP280;53698;52.738;4.752;2022-08-25T04:45:36;101822.31;;;20.76
66795;BMP280;53698;52.738;4.752;2022-08-25T04:48:02;101820.09;;;20.80
66795;BMP280;53698;52.738;4.752;2022-08-25T04:50:28;101815.09;;;20.84
66795;BMP280;53698;52.738;4.752;2022-08-25T04:52:53;101817.94;;;20.90
66795;BMP280;53698;52.738;4.752;2022-08-25T04:55:19;101824.50;;;20.92
66795;BMP280;53698;52.738;4.752;2022-08-25T04:57:44;101821.25;;;20.93
66795;BMP280;53698;52.738;4.752;2022-08-25T05:00:10;101827.63;;;20.99
66795;BMP280;53698;52.738;4.752;2022-08-25T05:02:35;101822.13;;;21.05
66795;BMP280;53698;52.738;4.752;2022-08-25T05:05:01;101822.97;;;21.10
66795;BMP280;53698;52.738;4.752;2022-08-25T05:07:28;101828.53;;;21.16
66795;BMP280;53698;52.738;4.752;2022-08-25T05:09:53;101822.59;;;21.23
66795;BMP280;53698;52.738;4.752;2022-08-25T05:12:19;101828.97;;;21.34
66795;BMP280;53698;52.738;4.752;2022-08-25T05:14:44;101824.00;;;21.43
66795;BMP280;53698;52.738;4.752;2022-08-25T05:17:10;101822.78;;;21.49
66795;BMP280;53698;52.738;4.752;2022-08-25T05:19:35;101821.09;;;21.57
66795;BMP280;53698;52.738;4.752;2022-08-25T05:22:01;101819.38;;;21.65
66795;BMP280;53698;52.738;4.752;2022-08-25T05:24:26;101820.19;;;21.71
66795;BMP280;53698;52.738;4.752;2022-08-25T05:26:52;101823.50;;;21.75
66795;BMP280;53698;52.738;4.752;2022-08-25T05:29:17;101822.78;;;21.79
66795;BMP280;53698;52.738;4.752;2022-08-25T05:31:43;101824.34;;;21.86
66795;BMP280;53698;52.738;4.752;2022-08-25T05:34:09;101820.81;;;21.85
66795;BMP280;53698;52.738;4.752;2022-08-25T05:36:36;101823.34;;;21.89
66795;BMP280;53698;52.738;4.752;2022-08-25T05:39:02;101825.44;;;21.99
66795;BMP280;53698;52.738;4.752;2022-08-25T05:41:29;101827.00;;;22.05
66795;BMP280;53698;52.738;4.752;2022-08-25T05:43:55;101828.03;;;22.08
66795;BMP280;53698;52.738;4.752;2022-08-25T05:46:21;101825.06;;;22.16
66795;BMP280;53698;52.738;4.752;2022-08-25T05:48:47;101820.03;;;22.26
66795;BMP280;53698;52.738;4.752;2022-08-25T05:51:13;101819.06;;;22.34
66795;BMP280;53698;52.738;4.752;2022-08-25T05:53:45;101817.06;;;22.40
66795;BMP280;53698;52.738;4.752;2022-08-25T05:56:12;101814.06;;;22.48
66795;BMP280;53698;52.738;4.752;2022-08-25T05:58:38;101810.59;;;22.59
66795;BMP280;53698;52.738;4.752;2022-08-25T06:01:04;101808.59;;;22.70
66795;BMP280;53698;52.738;4.752;2022-08-25T06:03:49;101814.69;;;22.74
66795;BMP280;53698;52.738;4.752;2022-08-25T06:06:17;101800.31;;;22.96
66795;BMP280;53698;52.738;4.752;2022-08-25T06:08:43;101802.59;;;23.09
66795;BMP280;53698;52.738;4.752;2022-08-25T06:11:10;101806.69;;;23.24
66795;BMP280;53698;52.738;4.752;2022-08-25T06:13:37;101810.00;;;23.28
66795;BMP280;53698;52.738;4.752;2022-08-25T06:16:02;101812.75;;;23.33
66795;BMP280;53698;52.738;4.752;2022-08-25T06:18:27;101813.03;;;23.24
66795;BMP280;53698;52.738;4.752;2022-08-25T06:20:53;101806.69;;;23.34
66795;BMP280;53698;52.738;4.752;2022-08-25T06:23:19;101812.75;;;23.54
66795;BMP280;53698;52.738;4.752;2022-08-25T06:25:52;101803.63;;;23.70
66795;BMP280;53698;52.738;4.752;2022-08-25T06:28:18;101810.97;;;23.78
66795;BMP280;53698;52.738;4.752;2022-08-25T06:30:45;101808.94;;;23.84
66795;BMP280;53698;52.738;4.752;2022-08-25T06:33:11;101807.13;;;23.86
66795;BMP280;53698;52.738;4.752;2022-08-25T06:35:40;101805.13;;;24.03
66795;BMP280;53698;52.738;4.752;2022-08-25T06:38:06;101804.81;;;24.17
66795;BMP280;53698;52.738;4.752;2022-08-25T06:40:31;101797.16;;;24.23
66795;BMP280;53698;52.738;4.752;2022-08-25T06:42:57;101794.41;;;24.17
66795;BMP280;53698;52.738;4.752;2022-08-25T06:45:22;101797.66;;;24.27
66795;BMP280;53698;52.738;4.752;2022-08-25T06:47:48;101798.19;;;24.25
66795;BMP280;53698;52.738;4.752;2022-08-25T06:50:13;101799.38;;;24.46
66795;BMP280;53698;52.738;4.752;2022-08-25T06:52:39;101798.03;;;24.63
66795;BMP280;53698;52.738;4.752;2022-08-25T06:55:04;101799.41;;;24.90
66795;BMP280;53698;52.738;4.752;2022-08-25T06:57:30;101784.25;;;25.15
66795;BMP280;53698;52.738;4.752;2022-08-25T06:59:59;101792.09;;;25.16
66795;BMP280;53698;52.738;4.752;2022-08-25T07:02:25;101795.06;;;25.29
66795;BMP280;53698;52.738;4.752;2022-08-25T07:04:50;101784.94;;;25.54
66795;BMP280;53698;52.738;4.752;2022-08-25T07:07:17;101792.38;;;25.70
66795;BMP280;53698;52.738;4.752;2022-08-25T07:09:43;101781.13;;;25.81
66795;BMP280;53698;52.738;4.752;2022-08-25T07:12:08;101782.22;;;25.96
66795;BMP280;53698;52.738;4.752;2022-08-25T07:14:34;101779.72;;;26.16
66795;BMP280;53698;52.738;4.752;2022-08-25T07:17:00;101779.25;;;26.12
66795;BMP280;53698;52.738;4.752;2022-08-25T07:19:25;101780.25;;;26.14
66795;BMP280;53698;52.738;4.752;2022-08-25T07:21:52;101787.75;;;26.24
66795;BMP280;53698;52.738;4.752;2022-08-25T07:24:19;101783.91;;;26.27
66795;BMP280;53698;52.738;4.752;2022-08-25T07:26:44;101786.91;;;26.53
66795;BMP280;53698;52.738;4.752;2022-08-25T07:29:21;101783.88;;;26.51
66795;BMP280;53698;52.738;4.752;2022-08-25T07:31:47;101774.03;;;26.62
66795;BMP280;53698;52.738;4.752;2022-08-25T07:34:12;101778.50;;;26.71
66795;BMP280;53698;52.738;4.752;2022-08-25T07:36:57;101777.34;;;26.79
66795;BMP280;53698;52.738;4.752;2022-08-25T07:39:23;101773.88;;;26.91
66795;BMP280;53698;52.738;4.752;2022-08-25T07:41:49;101776.53;;;26.66
66795;BMP280;53698;52.738;4.752;2022-08-25T07:44:15;101774.63;;;27.09
66795;BMP280;53698;52.738;4.752;2022-08-25T07:46:41;101769.78;;;27.10
66795;BMP280;53698;52.738;4.752;2022-08-25T07:49:06;101766.81;;;27.33
66795;BMP280;53698;52.738;4.752;2022-08-25T07:51:32;101776.13;;;27.72
66795;BMP280;53698;52.738;4.752;2022-08-25T07:53:57;101764.88;;;27.84
66795;BMP280;53698;52.738;4.752;2022-08-25T07:56:23;101769.78;;;27.53
66795;BMP280;53698;52.738;4.752;2022-08-25T07:58:48;101765.38;;;27.57
66795;BMP280;53698;52.738;4.752;2022-08-25T08:01:19;101767.81;;;27.91
66795;BMP280;53698;52.738;4.752;2022-08-25T08:03:46;101766.41;;;27.98
66795;BMP280;53698;52.738;4.752;2022-08-25T08:06:15;101753.56;;;28.27
66795;BMP280;53698;52.738;4.752;2022-08-25T08:08:42;101751.28;;;28.39
66795;BMP280;53698;52.738;4.752;2022-08-25T08:11:24;101749.94;;;28.52
66795;BMP280;53698;52.738;4.752;2022-08-25T08:13:52;101757.16;;;28.60
66795;BMP280;53698;52.738;4.752;2022-08-25T08:16:19;101744.50;;;28.67
66795;BMP280;53698;52.738;4.752;2022-08-25T08:18:45;101748.84;;;28.55
66795;BMP280;53698;52.738;4.752;2022-08-25T08:21:12;101738.25;;;28.74
66795;BMP280;53698;52.738;4.752;2022-08-25T08:23:38;101745.84;;;28.53
66795;BMP280;53698;52.738;4.752;2022-08-25T08:26:04;101743.72;;;28.34
66795;BMP280;53698;52.738;4.752;2022-08-25T08:28:29;101740.81;;;28.39
66795;BMP280;53698;52.738;4.752;2022-08-25T08:30:55;101728.94;;;28.66
66795;BMP280;53698;52.738;4.752;2022-08-25T08:33:23;101734.69;;;28.60
66795;BMP280;53698;52.738;4.752;2022-08-25T08:35:55;101737.19;;;28.51
66795;BMP280;53698;52.738;4.752;2022-08-25T08:38:20;101729.50;;;28.64
66795;BMP280;53698;52.738;4.752;2022-08-25T08:41:43;101718.53;;;28.86
66795;BMP280;53698;52.738;4.752;2022-08-25T08:44:35;101716.91;;;28.91
66795;BMP280;53698;52.738;4.752;2022-08-25T08:47:17;101723.28;;;29.11
66795;BMP280;53698;52.738;4.752;2022-08-25T08:55:25;101719.22;;;29.19
66795;BMP280;53698;52.738;4.752;2022-08-25T08:57:54;101721.00;;;28.90
66795;BMP280;53698;52.738;4.752;2022-08-25T09:00:21;101723.00;;;29.22
66795;BMP280;53698;52.738;4.752;2022-08-25T09:02:55;101717.06;;;29.25
66795;BMP280;53698;52.738;4.752;2022-08-25T09:05:23;101716.72;;;29.28
66795;BMP280;53698;52.738;4.752;2022-08-25T09:07:57;101723.84;;;29.29
66795;BMP280;53698;52.738;4.752;2022-08-25T09:10:31;101710.25;;;29.68
66795;BMP280;53698;52.738;4.752;2022-08-25T09:13:15;101707.78;;;29.92
66795;BMP280;53698;52.738;4.752;2022-08-25T09:19:05;101710.75;;;30.21
66795;BMP280;53698;52.738;4.752;2022-08-25T09:31:01;101711.91;;;30.25
66795;BMP280;53698;52.738;4.752;2022-08-25T09:33:29;101711.97;;;30.32
66795;BMP280;53698;52.738;4.752;2022-08-25T09:35:56;101707.91;;;30.48
66795;BMP280;53698;52.738;4.752;2022-08-25T09:38:22;101707.34;;;30.15
66795;BMP280;53698;52.738;4.752;2022-08-25T09:40:52;101694.19;;;30.45
66795;BMP280;53698;52.738;4.752;2022-08-25T09:43:34;101694.63;;;30.63
66795;BMP280;53698;52.738;4.752;2022-08-25T09:46:09;101687.53;;;30.84
66795;BMP280;53698;52.738;4.752;2022-08-25T09:53:51;101683.72;;;30.60
66795;BMP280;53698;52.738;4.752;2022-08-25T09:56:20;101680.59;;;30.92
66795;BMP280;53698;52.738;4.752;2022-08-25T09:58:46;101684.13;;;30.71
66795;BMP280;53698;52.738;4.752;2022-08-25T10:01:18;101674.97;;;30.92
66795;BMP280;53698;52.738;4.752;2022-08-25T10:03:59;101680.78;;;31.01
66795;BMP280;53698;52.738;4.752;2022-08-25T10:06:28;101677.78;;;31.43
66795;BMP280;53698;52.738;4.752;2022-08-25T10:09:02;101678.13;;;31.62
66795;BMP280;53698;52.738;4.752;2022-08-25T10:16:48;101678.09;;;31.76
66795;BMP280;53698;52.738;4.752;2022-08-25T10:19:28;101670.88;;;32.04
66795;BMP280;53698;52.738;4.752;2022-08-25T10:22:04;101668.22;;;32.14
66795;BMP280;53698;52.738;4.752;2022-08-25T10:24:29;101670.13;;;32.11
66795;BMP280;53698;52.738;4.752;2022-08-25T10:32:43;101659.13;;;32.22
66795;BMP280;53698;52.738;4.752;2022-08-25T10:35:24;101647.50;;;32.57
66795;BMP280;53698;52.738;4.752;2022-08-25T10:38:09;101646.22;;;32.51
66795;BMP280;53698;52.738;4.752;2022-08-25T10:40:55;101638.16;;;32.71
66795;BMP280;53698;52.738;4.752;2022-08-25T10:46:25;101647.06;;;32.37
66795;BMP280;53698;52.738;4.752;2022-08-25T10:54:39;101621.25;;;32.64
66795;BMP280;53698;52.738;4.752;2022-08-25T10:57:12;101620.91;;;32.60
66795;BMP280;53698;52.738;4.752;2022-08-25T11:00:03;101615.09;;;32.58
66795;BMP280;53698;52.738;4.752;2022-08-25T11:06:13;101602.00;;;32.93
66795;BMP280;53698;52.738;4.752;2022-08-25T11:09:04;101591.34;;;33.25
66795;BMP280;53698;52.738;4.752;2022-08-25T11:11:37;101594.34;;;32.87
66795;BMP280;53698;52.738;4.752;2022-08-25T11:14:17;101599.47;;;33.05
66795;BMP280;53698;52.738;4.752;2022-08-25T11:19:41;101583.41;;;33.80
66795;BMP280;53698;52.738;4.752;2022-08-25T11:27:18;101576.78;;;33.28
66795;BMP280;53698;52.738;4.752;2022-08-25T11:29:53;101582.97;;;33.51
66795;BMP280;53698;52.738;4.752;2022-08-25T11:32:20;101581.66;;;33.52
66795;BMP280;53698;52.738;4.752;2022-08-25T11:34:49;101577.88;;;33.99
66795;BMP280;53698;52.738;4.752;2022-08-25T11:37:26;101572.81;;;34.49
66795;BMP280;53698;52.738;4.752;2022-08-25T11:42:37;101570.13;;;34.86
66795;BMP280;53698;52.738;4.752;2022-08-25T11:48:17;101564.00;;;35.43
66795;BMP280;53698;52.738;4.752;2022-08-25T11:51:02;101555.31;;;35.78
66795;BMP280;53698;52.738;4.752;2022-08-25T11:53:31;101544.63;;;36.63
66795;BMP280;53698;52.738;4.752;2022-08-25T11:56:05;101550.09;;;37.30
66795;BMP280;53698;52.738;4.752;2022-08-25T11:58:41;101547.78;;;37.17
66795;BMP280;53698;52.738;4.752;2022-08-25T12:09:30;101533.66;;;38.56
66795;BMP280;53698;52.738;4.752;2022-08-25T12:11:56;101537.75;;;38.87
66795;BMP280;53698;52.738;4.752;2022-08-25T12:21:51;101531.00;;;39.27
66795;BMP280;53698;52.738;4.752;2022-08-25T12:27:18;101524.03;;;40.91
66795;BMP280;53698;52.738;4.752;2022-08-25T12:35:32;101529.44;;;40.72
66795;BMP280;53698;52.738;4.752;2022-08-25T12:38:05;101527.56;;;41.31
66795;BMP280;53698;52.738;4.752;2022-08-25T12:43:07;101516.72;;;41.56
66795;BMP280;53698;52.738;4.752;2022-08-25T12:45:44;101526.13;;;41.17
66795;BMP280;53698;52.738;4.752;2022-08-25T12:51:09;101530.72;;;40.19
66795;BMP280;53698;52.738;4.752;2022-08-25T12:59:10;101539.13;;;37.67
66795;BMP280;53698;52.738;4.752;2022-08-25T13:01:55;101539.16;;;36.08
66795;BMP280;53698;52.738;4.752;2022-08-25T13:10:14;101517.53;;;38.72
66795;BMP280;53698;52.738;4.752;2022-08-25T13:13:10;101530.06;;;38.22
66795;BMP280;53698;52.738;4.752;2022-08-25T13:15:43;101529.38;;;38.13
66795;BMP280;53698;52.738;4.752;2022-08-25T13:18:25;101537.28;;;38.46
66795;BMP280;53698;52.738;4.752;2022-08-25T13:21:14;101537.53;;;38.07
66795;BMP280;53698;52.738;4.752;2022-08-25T13:23:44;101526.00;;;37.62
66795;BMP280;53698;52.738;4.752;2022-08-25T13:26:15;101531.09;;;38.06
66795;BMP280;53698;52.738;4.752;2022-08-25T13:28:41;101530.81;;;38.90
66795;BMP280;53698;52.738;4.752;2022-08-25T13:31:14;101530.28;;;38.93
66795;BMP280;53698;52.738;4.752;2022-08-25T13:33:49;101525.63;;;38.53
66795;BMP280;53698;52.738;4.752;2022-08-25T13:36:16;101528.19;;;38.94
66795;BMP280;53698;52.738;4.752;2022-08-25T13:39:19;101525.94;;;38.25
66795;BMP280;53698;52.738;4.752;2022-08-25T13:41:53;101533.31;;;37.97
66795;BMP280;53698;52.738;4.752;2022-08-25T13:44:21;101529.50;;;38.15
66795;BMP280;53698;52.738;4.752;2022-08-25T13:47:10;101527.56;;;38.28
66795;BMP280;53698;52.738;4.752;2022-08-25T13:49:42;101528.34;;;38.62
66795;BMP280;53698;52.738;4.752;2022-08-25T13:52:15;101531.09;;;37.95
66795;BMP280;53698;52.738;4.752;2022-08-25T13:54:43;101526.41;;;38.11
66795;BMP280;53698;52.738;4.752;2022-08-25T13:57:22;101536.97;;;37.56
66795;BMP280;53698;52.738;4.752;2022-08-25T13:59:52;101526.44;;;37.48
66795;BMP280;53698;52.738;4.752;2022-08-25T14:02:41;101520.31;;;38.05
66795;BMP280;53698;52.738;4.752;2022-08-25T14:05:07;101516.31;;;38.53
66795;BMP280;53698;52.738;4.752;2022-08-25T14:07:33;101532.22;;;37.70
66795;BMP280;53698;52.738;4.752;2022-08-25T14:10:05;101523.56;;;38.11
66795;BMP280;53698;52.738;4.752;2022-08-25T14:12:43;101524.44;;;38.13
66795;BMP280;53698;52.738;4.752;2022-08-25T14:17:44;101521.09;;;38.17
66795;BMP280;53698;52.738;4.752;2022-08-25T14:22:41;101513.94;;;37.52
66795;BMP280;53698;52.738;4.752;2022-08-25T14:25:06;101512.72;;;37.87
66795;BMP280;53698;52.738;4.752;2022-08-25T14:27:32;101504.00;;;38.39
66795;BMP280;53698;52.738;4.752;2022-08-25T14:29:57;101506.50;;;38.55
66795;BMP280;53698;52.738;4.752;2022-08-25T14:32:23;101503.94;;;38.71
66795;BMP280;53698;52.738;4.752;2022-08-25T14:34:48;101499.94;;;38.64
66795;BMP280;53698;52.738;4.752;2022-08-25T14:37:16;101496.44;;;38.88
66795;BMP280;53698;52.738;4.752;2022-08-25T14:39:43;101505.91;;;38.68
66795;BMP280;53698;52.738;4.752;2022-08-25T14:42:09;101509.00;;;38.38
66795;BMP280;53698;52.738;4.752;2022-08-25T14:44:34;101504.22;;;38.09
66795;BMP280;53698;52.738;4.752;2022-08-25T14:47:00;101506.72;;;37.72
66795;BMP280;53698;52.738;4.752;2022-08-25T14:49:32;101503.88;;;37.72
66795;BMP280;53698;52.738;4.752;2022-08-25T14:52:15;101500.44;;;37.53
66795;BMP280;53698;52.738;4.752;2022-08-25T14:54:42;101501.84;;;37.52
66795;BMP280;53698;52.738;4.752;2022-08-25T14:57:08;101507.84;;;36.85
66795;BMP280;53698;52.738;4.752;2022-08-25T14:59:34;101519.44;;;35.54
66795;BMP280;53698;52.738;4.752;2022-08-25T15:01:59;101520.34;;;35.11
66795;BMP280;53698;52.738;4.752;2022-08-25T15:04:27;101528.16;;;34.40
66795;BMP280;53698;52.738;4.752;2022-08-25T15:06:56;101536.78;;;34.33
66795;BMP280;53698;52.738;4.752;2022-08-25T15:09:22;101542.22;;;34.47
66795;BMP280;53698;52.738;4.752;2022-08-25T15:11:50;101554.56;;;34.17
66795;BMP280;53698;52.738;4.752;2022-08-25T15:14:17;101548.75;;;33.56
66795;BMP280;53698;52.738;4.752;2022-08-25T15:16:52;101541.88;;;33.33
66795;BMP280;53698;52.738;4.752;2022-08-25T15:19:21;101548.06;;;33.15
66795;BMP280;53698;52.738;4.752;2022-08-25T15:21:47;101547.50;;;33.66
66795;BMP280;53698;52.738;4.752;2022-08-25T15:24:14;101547.75;;;33.77
66795;BMP280;53698;52.738;4.752;2022-08-25T15:27:00;101543.59;;;33.62
66795;BMP280;53698;52.738;4.752;2022-08-25T15:29:28;101539.84;;;33.59
66795;BMP280;53698;52.738;4.752;2022-08-25T15:31:54;101540.06;;;33.71
66795;BMP280;53698;52.738;4.752;2022-08-25T15:34:20;101544.91;;;33.61
66795;BMP280;53698;52.738;4.752;2022-08-25T15:36:46;101553.78;;;32.68
66795;BMP280;53698;52.738;4.752;2022-08-25T15:39:12;101554.00;;;31.54
66795;BMP280;53698;52.738;4.752;2022-08-25T15:41:37;101560.34;;;30.95
66795;BMP280;53698;52.738;4.752;2022-08-25T15:44:04;101558.63;;;30.48
66795;BMP280;53698;52.738;4.752;2022-08-25T15:46:30;101559.69;;;30.16
66795;BMP280;53698;52.738;4.752;2022-08-25T15:48:56;101564.28;;;29.92
66795;BMP280;53698;52.738;4.752;2022-08-25T15:51:23;101569.03;;;30.11
66795;BMP280;53698;52.738;4.752;2022-08-25T15:53:49;101557.50;;;30.65
66795;BMP280;53698;52.738;4.752;2022-08-25T15:56:14;101554.44;;;31.44
66795;BMP280;53698;52.738;4.752;2022-08-25T15:58:44;101542.44;;;31.82